createdAt,value
2019-05-25T00:00:12.831Z,0.00
2019-05-25T00:01:12.821Z,0.00
2019-05-25T00:02:12.794Z,0.00
2019-05-25T00:03:12.774Z,0.00
2019-05-25T00:04:12.761Z,0.00
2019-05-25T00:05:12.739Z,0.00
2019-05-25T00:06:12.773Z,0.00
2019-05-25T00:07:12.735Z,0.00
2019-05-25T00:08:12.680Z,0.00
2019-05-25T00:09:12.666Z,0.00
2019-05-25T00:10:12.644Z,0.00
2019-05-25T00:11:12.633Z,0.00
2019-05-25T00:12:12.610Z,0.00
2019-05-25T00:13:12.602Z,0.00
2019-05-25T00:14:12.570Z,0.00
2019-05-25T00:15:12.551Z,0.00
2019-05-25T00:16:12.538Z,0.00
2019-05-25T00:17:12.517Z,0.00
2019-05-25T00:18:12.652Z,0.00
2019-05-25T00:19:12.474Z,0.00
2019-05-25T00:20:12.455Z,0.00
2019-05-25T00:21:14.204Z,0.00
2019-05-25T00:22:12.418Z,0.00
2019-05-25T00:23:12.412Z,0.00
2019-05-25T00:24:12.944Z,0.00
2019-05-25T00:25:12.363Z,0.00
2019-05-25T00:26:12.353Z,0.00
2019-05-25T00:27:12.329Z,0.00
2019-05-25T00:28:12.306Z,0.00
2019-05-25T00:29:12.288Z,0.00
2019-05-25T00:30:12.267Z,0.00
2019-05-25T00:31:12.259Z,0.00
2019-05-25T00:32:12.228Z,0.00
2019-05-25T00:33:12.219Z,0.00
2019-05-25T00:34:12.200Z,0.00
2019-05-25T00:35:12.174Z,0.00
2019-05-25T00:36:12.154Z,0.00
2019-05-25T00:37:12.137Z,0.00
2019-05-25T00:38:12.120Z,0.00
2019-05-25T00:42:02.581Z,0.00
2019-05-25T00:42:29.347Z,0.00
2019-05-25T00:44:02.562Z,0.00
2019-05-25T00:44:29.310Z,0.00
2019-05-25T00:45:29.290Z,0.00
2019-05-25T00:46:29.281Z,0.00
2019-05-25T00:47:29.260Z,0.00
2019-05-25T00:48:29.234Z,0.00
2019-05-25T00:49:29.214Z,0.00
2019-05-25T00:50:29.210Z,0.00
2019-05-25T00:51:29.178Z,0.00
2019-05-25T00:52:29.155Z,0.00
2019-05-25T00:53:29.137Z,0.00
2019-05-25T00:54:29.118Z,0.00
2019-05-25T00:55:29.101Z,0.00
2019-05-25T00:56:29.089Z,0.00
2019-05-25T00:58:32.761Z,0.00
2019-05-25T00:59:32.750Z,0.00
2019-05-25T01:00:32.744Z,0.00
2019-05-25T01:01:32.703Z,0.00
2019-05-25T01:02:32.694Z,0.00
2019-05-25T01:03:32.665Z,0.00
2019-05-25T01:04:32.646Z,0.00
2019-05-25T01:05:32.627Z,0.00
2019-05-25T01:06:32.614Z,0.00
2019-05-25T01:08:05.797Z,0.00
2019-05-25T01:08:32.569Z,0.00
2019-05-25T01:10:05.758Z,0.00
2019-05-25T01:10:32.532Z,0.00
2019-05-25T01:11:32.512Z,0.00
2019-05-25T01:12:32.493Z,0.00
2019-05-25T01:13:32.474Z,0.00
2019-05-25T01:14:32.460Z,0.00
2019-05-25T01:15:32.438Z,0.00
2019-05-25T01:16:32.418Z,0.00
2019-05-25T01:17:32.404Z,0.00
2019-05-25T01:18:32.378Z,0.00
2019-05-25T01:19:32.358Z,0.00
2019-05-25T01:20:32.353Z,0.00
2019-05-25T01:21:32.321Z,0.00
2019-05-25T01:22:32.304Z,0.00
2019-05-25T01:23:32.288Z,0.00
2019-05-25T01:24:43.869Z,0.00
2019-05-25T01:25:32.242Z,0.00
2019-05-25T01:26:32.227Z,0.00
2019-05-25T01:27:32.210Z,0.00
2019-05-25T01:28:32.187Z,0.00
2019-05-25T01:29:32.174Z,0.00
2019-05-25T01:30:32.149Z,0.00
2019-05-25T01:31:32.125Z,0.00
2019-05-25T01:32:32.118Z,0.00
2019-05-25T01:33:32.087Z,0.00
2019-05-25T01:34:32.078Z,0.00
2019-05-25T01:35:32.058Z,0.00
2019-05-25T01:36:32.030Z,0.00
2019-05-25T01:37:32.011Z,0.00
2019-05-25T01:38:31.992Z,0.00
2019-05-25T01:39:31.973Z,0.00
2019-05-25T01:40:32.000Z,0.00
2019-05-25T01:41:31.934Z,0.00
2019-05-25T01:42:31.924Z,0.00
2019-05-25T01:43:31.894Z,0.00
2019-05-25T01:44:31.876Z,0.00
2019-05-25T01:45:31.861Z,0.00
2019-05-25T01:46:31.852Z,0.00
2019-05-25T01:47:31.819Z,0.00
2019-05-25T01:48:31.797Z,0.00
2019-05-25T01:49:31.780Z,0.00
2019-05-25T01:50:31.962Z,0.00
2019-05-25T01:51:31.742Z,0.00
2019-05-25T01:52:31.723Z,0.00
2019-05-25T01:53:31.705Z,0.00
2019-05-25T01:54:31.683Z,0.00
2019-05-25T01:55:31.667Z,0.00
2019-05-25T01:56:31.646Z,0.00
2019-05-25T01:57:31.635Z,0.00
2019-05-25T01:58:31.617Z,0.00
2019-05-25T01:59:31.587Z,0.00
2019-05-25T02:00:31.568Z,0.00
2019-05-25T02:01:31.549Z,0.00
2019-05-25T02:02:31.530Z,0.00
2019-05-25T02:03:31.507Z,0.00
2019-05-25T02:04:31.491Z,0.00
2019-05-25T02:05:31.478Z,0.00
2019-05-25T02:06:31.453Z,0.00
2019-05-25T02:07:31.434Z,0.00
2019-05-25T02:08:31.410Z,0.00
2019-05-25T02:09:31.406Z,0.00
2019-05-25T02:10:31.372Z,0.00
2019-05-25T02:11:31.354Z,0.00
2019-05-25T02:12:31.335Z,0.00
2019-05-25T02:13:31.316Z,0.00
2019-05-25T02:14:31.295Z,0.00
2019-05-25T02:15:31.281Z,0.00
2019-05-25T02:16:31.257Z,0.00
2019-05-25T02:17:31.236Z,0.00
2019-05-25T02:18:31.219Z,0.00
2019-05-25T02:19:31.197Z,0.00
2019-05-25T02:20:31.177Z,0.00
2019-05-25T02:21:31.183Z,0.00
2019-05-25T02:22:31.137Z,0.00
2019-05-25T02:23:31.117Z,0.00
2019-05-25T02:24:31.121Z,0.00
2019-05-25T02:25:31.078Z,0.00
2019-05-25T02:26:31.059Z,0.00
2019-05-25T02:27:31.056Z,0.00
2019-05-25T02:28:31.044Z,0.00
2019-05-25T02:29:31.018Z,0.00
2019-05-25T02:30:30.995Z,0.00
2019-05-25T02:31:30.970Z,0.00
2019-05-25T02:32:30.943Z,0.00
2019-05-25T02:33:30.924Z,0.00
2019-05-25T02:34:30.911Z,0.00
2019-05-25T02:35:30.881Z,0.00
2019-05-25T02:36:30.871Z,0.00
2019-05-25T02:37:30.842Z,0.00
2019-05-25T02:38:30.823Z,0.00
2019-05-25T02:39:30.802Z,0.00
2019-05-25T02:40:30.783Z,0.00
2019-05-25T02:41:30.765Z,0.00
2019-05-25T02:42:30.745Z,0.00
2019-05-25T02:43:30.723Z,0.00
2019-05-25T02:44:30.710Z,0.00
2019-05-25T02:45:30.685Z,0.00
2019-05-25T02:46:30.667Z,0.00
2019-05-25T02:47:30.646Z,0.00
2019-05-25T02:48:30.628Z,0.00
2019-05-25T02:49:30.606Z,0.00
2019-05-25T02:50:30.588Z,0.00
2019-05-25T02:51:30.571Z,0.00
2019-05-25T02:52:30.548Z,0.00
2019-05-25T02:53:30.529Z,0.00
2019-05-25T02:54:30.510Z,0.00
2019-05-25T02:55:34.244Z,0.00
2019-05-25T02:56:30.469Z,0.00
2019-05-25T02:57:30.451Z,0.00
2019-05-25T02:58:30.429Z,0.00
2019-05-25T03:00:30.398Z,0.00
2019-05-25T03:01:30.376Z,0.00
2019-05-25T03:02:30.350Z,0.00
2019-05-25T03:03:30.328Z,0.00
2019-05-25T03:04:30.309Z,0.00
2019-05-25T03:05:30.290Z,0.00
2019-05-25T03:06:30.271Z,0.00
2019-05-25T03:07:30.260Z,0.00
2019-05-25T03:08:30.230Z,0.00
2019-05-25T03:09:30.210Z,0.00
2019-05-25T03:10:30.189Z,0.00
2019-05-25T03:11:30.176Z,0.00
2019-05-25T03:12:30.152Z,0.00
2019-05-25T03:13:30.143Z,0.00
2019-05-25T03:14:30.123Z,0.00
2019-05-25T03:15:30.087Z,0.00
2019-05-25T03:16:30.070Z,0.00
2019-05-25T03:17:30.052Z,0.00
2019-05-25T03:18:30.038Z,0.00
2019-05-25T03:19:30.010Z,0.00
2019-05-25T03:20:29.990Z,0.00
2019-05-25T03:21:29.973Z,0.00
2019-05-25T03:22:29.952Z,0.00
2019-05-25T03:23:29.930Z,5.63
2019-05-25T03:24:29.910Z,5.63
2019-05-25T03:25:30.071Z,5.63
2019-05-25T03:26:29.889Z,5.63
2019-05-25T03:27:29.850Z,5.63
2019-05-25T03:28:29.832Z,5.63
2019-05-25T03:29:29.816Z,5.63
2019-05-25T03:30:29.792Z,5.63
2019-05-25T03:31:29.779Z,5.63
2019-05-25T03:32:29.752Z,5.63
2019-05-25T03:33:29.738Z,5.63
2019-05-25T03:34:29.715Z,5.63
2019-05-25T03:35:29.700Z,5.63
2019-05-25T03:36:29.676Z,5.63
2019-05-25T03:37:29.658Z,5.63
2019-05-25T03:38:29.632Z,5.63
2019-05-25T03:39:29.613Z,5.63
2019-05-25T03:40:29.593Z,11.25
2019-05-25T03:41:29.573Z,11.25
2019-05-25T03:42:29.554Z,11.25
2019-05-25T03:43:29.533Z,11.25
2019-05-25T03:44:29.519Z,11.25
2019-05-25T03:45:29.496Z,16.88
2019-05-25T03:46:29.482Z,16.88
2019-05-25T03:47:29.454Z,16.88
2019-05-25T03:48:29.435Z,16.88
2019-05-25T03:49:29.416Z,16.88
2019-05-25T03:50:29.402Z,22.50
2019-05-25T03:51:29.390Z,22.50
2019-05-25T03:52:29.364Z,22.50
2019-05-25T03:53:29.339Z,28.13
2019-05-25T03:54:29.319Z,28.13
2019-05-25T03:55:29.299Z,28.13
2019-05-25T03:56:29.283Z,28.13
2019-05-25T03:57:29.259Z,28.13
2019-05-25T03:58:29.242Z,33.75
2019-05-25T03:59:29.221Z,39.38
2019-05-25T04:00:29.209Z,50.63
2019-05-25T04:01:29.191Z,61.88
2019-05-25T04:02:29.252Z,61.88
2019-05-25T04:03:29.141Z,61.88
2019-05-25T04:04:29.122Z,61.88
2019-05-25T04:05:29.104Z,56.25
2019-05-25T04:06:29.091Z,56.25
2019-05-25T04:07:29.068Z,61.88
2019-05-25T04:08:29.049Z,67.50
2019-05-25T04:09:29.030Z,73.13
2019-05-25T04:10:29.005Z,73.13
2019-05-25T04:11:28.995Z,84.38
2019-05-25T04:12:28.971Z,84.38
2019-05-25T04:13:28.946Z,84.38
2019-05-25T04:14:28.930Z,90.00
2019-05-25T04:15:28.910Z,90.00
2019-05-25T04:16:28.893Z,95.63
2019-05-25T04:17:28.870Z,95.63
2019-05-25T04:18:28.850Z,90.00
2019-05-25T04:19:28.839Z,84.38
2019-05-25T04:20:28.869Z,84.38
2019-05-25T04:21:28.829Z,95.63
2019-05-25T04:22:28.773Z,101.25
2019-05-25T04:23:28.758Z,101.25
2019-05-25T04:24:28.733Z,112.50
2019-05-25T04:25:28.714Z,118.13
2019-05-25T04:26:28.696Z,123.75
2019-05-25T04:27:28.676Z,135.00
2019-05-25T04:28:28.657Z,129.38
2019-05-25T04:29:28.637Z,118.13
2019-05-25T04:30:28.619Z,112.50
2019-05-25T04:31:28.598Z,112.50
2019-05-25T04:32:28.579Z,106.88
2019-05-25T04:33:28.569Z,101.25
2019-05-25T04:34:28.555Z,95.63
2019-05-25T04:35:28.529Z,90.00
2019-05-25T04:36:28.514Z,90.00
2019-05-25T04:37:28.485Z,95.63
2019-05-25T04:38:28.502Z,90.00
2019-05-25T04:39:28.456Z,84.38
2019-05-25T04:40:28.427Z,84.38
2019-05-25T04:41:28.409Z,90.00
2019-05-25T04:42:28.393Z,95.63
2019-05-25T04:43:28.372Z,101.25
2019-05-25T04:44:28.350Z,101.25
2019-05-25T04:45:28.332Z,106.88
2019-05-25T04:46:28.320Z,106.88
2019-05-25T04:47:28.297Z,106.88
2019-05-25T04:48:28.276Z,112.50
2019-05-25T04:49:28.264Z,123.75
2019-05-25T04:50:28.238Z,123.75
2019-05-25T04:51:28.219Z,123.75
2019-05-25T04:52:28.199Z,123.75
2019-05-25T04:53:28.181Z,123.75
2019-05-25T04:54:28.164Z,123.75
2019-05-25T04:55:28.142Z,123.75
2019-05-25T04:56:38.739Z,123.75
2019-05-25T04:57:28.117Z,123.75
2019-05-25T04:58:28.090Z,135.00
2019-05-25T04:59:28.068Z,151.88
2019-05-25T05:00:28.048Z,151.88
2019-05-25T05:01:28.028Z,151.88
2019-05-25T05:02:28.013Z,157.50
2019-05-25T05:03:27.990Z,157.50
2019-05-25T05:04:27.974Z,151.88
2019-05-25T05:05:27.953Z,146.25
2019-05-25T05:06:27.936Z,146.25
2019-05-25T05:07:27.917Z,174.38
2019-05-25T05:08:27.902Z,174.38
2019-05-25T05:09:27.877Z,168.75
2019-05-25T05:10:27.859Z,163.13
2019-05-25T05:11:27.838Z,157.50
2019-05-25T05:12:27.821Z,151.88
2019-05-25T05:13:27.802Z,151.88
2019-05-25T05:14:27.783Z,146.25
2019-05-25T05:15:27.765Z,140.63
2019-05-25T05:16:27.765Z,135.00
2019-05-25T05:17:27.736Z,135.00
2019-05-25T05:18:27.711Z,129.38
2019-05-25T05:19:27.690Z,129.38
2019-05-25T05:20:27.676Z,129.38
2019-05-25T05:21:27.652Z,123.75
2019-05-25T05:22:27.633Z,123.75
2019-05-25T05:23:27.613Z,123.75
2019-05-25T05:24:27.594Z,135.00
2019-05-25T05:25:27.580Z,146.25
2019-05-25T05:26:27.570Z,151.88
2019-05-25T05:27:27.541Z,157.50
2019-05-25T05:28:27.522Z,163.13
2019-05-25T05:29:27.501Z,168.75
2019-05-25T05:30:27.493Z,174.38
2019-05-25T05:31:27.465Z,174.38
2019-05-25T05:32:28.136Z,168.75
2019-05-25T05:33:27.437Z,163.13
2019-05-25T05:34:27.429Z,163.13
2019-05-25T05:35:27.398Z,180.00
2019-05-25T05:36:27.392Z,174.38
2019-05-25T05:37:27.353Z,174.38
2019-05-25T05:38:27.348Z,174.38
2019-05-25T05:39:27.315Z,168.75
2019-05-25T05:40:27.300Z,163.13
2019-05-25T05:41:27.282Z,168.75
2019-05-25T05:42:27.266Z,157.50
2019-05-25T05:43:27.242Z,157.50
2019-05-25T05:44:27.224Z,163.13
2019-05-25T05:45:27.208Z,168.75
2019-05-25T05:46:27.187Z,168.75
2019-05-25T05:47:27.167Z,168.75
2019-05-25T05:48:27.158Z,168.75
2019-05-25T05:49:27.140Z,163.13
2019-05-25T05:50:27.121Z,163.13
2019-05-25T05:51:27.097Z,157.50
2019-05-25T05:52:27.195Z,157.50
2019-05-25T05:53:27.062Z,163.13
2019-05-25T05:54:27.039Z,157.50
2019-05-25T05:55:27.022Z,157.50
2019-05-25T05:56:27.008Z,163.13
2019-05-25T05:57:26.986Z,163.13
2019-05-25T05:58:26.977Z,163.13
2019-05-25T05:59:26.966Z,163.13
2019-05-25T06:00:26.929Z,168.75
2019-05-25T06:01:26.911Z,168.75
2019-05-25T06:02:26.895Z,168.75
2019-05-25T06:03:26.931Z,174.38
2019-05-25T06:04:26.859Z,180.00
2019-05-25T06:05:26.841Z,180.00
2019-05-25T06:06:26.822Z,180.00
2019-05-25T06:07:27.555Z,191.25
2019-05-25T06:08:26.791Z,196.88
2019-05-25T06:09:26.771Z,202.50
2019-05-25T06:10:26.751Z,196.88
2019-05-25T06:11:26.728Z,202.50
2019-05-25T06:12:26.710Z,208.13
2019-05-25T06:13:26.694Z,208.13
2019-05-25T06:14:26.674Z,202.50
2019-05-25T06:15:26.670Z,208.13
2019-05-25T06:16:26.635Z,219.38
2019-05-25T06:17:26.627Z,230.63
2019-05-25T06:18:26.610Z,236.25
2019-05-25T06:19:26.583Z,247.50
2019-05-25T06:20:26.566Z,253.13
2019-05-25T06:21:26.546Z,258.75
2019-05-25T06:22:26.552Z,270.00
2019-05-25T06:23:26.515Z,270.00
2019-05-25T06:24:26.491Z,270.00
2019-05-25T06:25:26.476Z,275.63
2019-05-25T06:26:26.492Z,286.88
2019-05-25T06:27:27.931Z,292.50
2019-05-25T06:28:26.419Z,292.50
2019-05-25T06:29:26.403Z,298.13
2019-05-25T06:30:26.382Z,320.63
2019-05-25T06:31:26.364Z,360.00
2019-05-25T06:32:26.347Z,405.00
2019-05-25T06:33:26.329Z,438.75
2019-05-25T06:34:26.310Z,483.75
2019-05-25T06:35:26.293Z,495.00
2019-05-25T06:36:26.274Z,523.13
2019-05-25T06:37:26.259Z,568.13
2019-05-25T06:38:26.243Z,590.63
2019-05-25T06:39:26.222Z,624.38
2019-05-25T06:40:26.207Z,708.75
2019-05-25T06:41:26.186Z,652.50
2019-05-25T06:42:26.176Z,635.63
2019-05-25T06:43:26.154Z,652.50
2019-05-25T06:44:26.283Z,646.88
2019-05-25T06:45:26.118Z,624.38
2019-05-25T06:46:26.108Z,607.50
2019-05-25T06:47:26.084Z,590.63
2019-05-25T06:48:26.078Z,601.88
2019-05-25T06:49:26.082Z,562.50
2019-05-25T06:50:26.031Z,562.50
2019-05-25T06:51:26.018Z,528.75
2019-05-25T06:52:26.039Z,528.75
2019-05-25T06:53:25.978Z,506.25
2019-05-25T06:54:25.962Z,478.13
2019-05-25T06:55:25.953Z,444.38
2019-05-25T06:56:25.931Z,416.25
2019-05-25T06:57:25.912Z,382.50
2019-05-25T06:59:10.266Z,393.75
2019-05-25T07:00:10.264Z,455.63
2019-05-25T07:01:10.243Z,556.88
2019-05-25T07:02:10.218Z,630.00
2019-05-25T07:03:12.821Z,669.38
2019-05-25T07:04:10.206Z,720.00
2019-05-25T07:05:10.176Z,1265.63
2019-05-25T07:06:10.150Z,2463.75
2019-05-25T07:07:10.143Z,624.38
2019-05-25T07:08:10.117Z,675.00
2019-05-25T07:09:10.108Z,540.00
2019-05-25T07:10:10.083Z,517.50
2019-05-25T07:11:10.077Z,523.13
2019-05-25T07:12:10.052Z,540.00
2019-05-25T07:13:10.047Z,613.13
2019-05-25T07:14:10.030Z,511.88
2019-05-25T07:15:10.015Z,483.75
2019-05-25T07:16:09.985Z,450.00
2019-05-25T07:17:10.191Z,421.88
2019-05-25T07:18:09.968Z,405.00
2019-05-25T07:19:09.950Z,393.75
2019-05-25T07:20:09.922Z,371.25
2019-05-25T07:21:09.909Z,354.38
2019-05-25T07:22:09.889Z,354.38
2019-05-25T07:23:09.870Z,365.63
2019-05-25T07:24:09.854Z,371.25
2019-05-25T07:25:09.837Z,388.13
2019-05-25T07:26:09.833Z,416.25
2019-05-25T07:27:09.805Z,483.75
2019-05-25T07:28:09.787Z,528.75
2019-05-25T07:29:09.770Z,528.75
2019-05-25T07:30:09.757Z,495.00
2019-05-25T07:31:09.740Z,478.13
2019-05-25T07:32:09.737Z,450.00
2019-05-25T07:33:09.715Z,472.50
2019-05-25T07:34:09.689Z,528.75
2019-05-25T07:35:09.677Z,534.38
2019-05-25T07:36:09.658Z,511.88
2019-05-25T07:37:09.644Z,511.88
2019-05-25T07:38:09.624Z,506.25
2019-05-25T07:39:09.608Z,511.88
2019-05-25T07:40:09.642Z,506.25
2019-05-25T07:41:09.573Z,511.88
2019-05-25T07:42:09.558Z,534.38
2019-05-25T07:43:09.540Z,562.50
2019-05-25T07:44:09.526Z,590.63
2019-05-25T07:45:09.518Z,585.00
2019-05-25T07:46:09.492Z,573.75
2019-05-25T07:47:09.528Z,590.63
2019-05-25T07:48:09.459Z,618.75
2019-05-25T07:49:09.443Z,646.88
2019-05-25T07:50:09.476Z,686.25
2019-05-25T07:51:09.420Z,691.88
2019-05-25T07:52:09.405Z,675.00
2019-05-25T07:53:09.434Z,686.25
2019-05-25T07:54:09.363Z,742.50
2019-05-25T07:55:09.349Z,753.75
2019-05-25T07:56:09.341Z,725.63
2019-05-25T07:57:09.317Z,686.25
2019-05-25T07:58:17.705Z,624.38
2019-05-25T07:59:09.281Z,601.88
2019-05-25T08:00:10.076Z,607.50
2019-05-25T08:01:09.250Z,720.00
2019-05-25T08:02:09.235Z,793.13
2019-05-25T08:03:09.217Z,1361.25
2019-05-25T08:04:09.202Z,945.00
2019-05-25T08:05:09.192Z,995.63
2019-05-25T08:06:09.170Z,984.38
2019-05-25T08:07:09.161Z,900.00
2019-05-25T08:08:09.143Z,753.75
2019-05-25T08:09:09.139Z,731.25
2019-05-25T08:10:09.118Z,793.13
2019-05-25T08:11:09.097Z,843.75
2019-05-25T08:12:09.133Z,883.13
2019-05-25T08:13:09.069Z,860.63
2019-05-25T08:14:09.053Z,748.13
2019-05-25T08:15:09.031Z,708.75
2019-05-25T08:16:09.015Z,821.25
2019-05-25T08:17:08.999Z,821.25
2019-05-25T08:18:08.996Z,759.38
2019-05-25T08:19:08.976Z,776.25
2019-05-25T08:20:08.968Z,815.63
2019-05-25T08:21:08.953Z,821.25
2019-05-25T08:22:08.935Z,804.38
2019-05-25T08:23:08.918Z,804.38
2019-05-25T08:24:08.903Z,815.63
2019-05-25T08:25:08.884Z,871.88
2019-05-25T08:26:08.872Z,866.25
2019-05-25T08:27:08.857Z,950.63
2019-05-25T08:28:08.871Z,916.88
2019-05-25T08:29:08.844Z,849.38
2019-05-25T08:30:08.811Z,776.25
2019-05-25T08:31:08.790Z,798.75
2019-05-25T08:32:08.782Z,776.25
2019-05-25T08:33:08.762Z,736.88
2019-05-25T08:34:08.756Z,731.25
2019-05-25T08:35:08.740Z,781.88
2019-05-25T08:36:08.727Z,697.50
2019-05-25T08:37:08.705Z,725.63
2019-05-25T08:38:08.692Z,810.00
2019-05-25T08:39:08.679Z,877.50
2019-05-25T08:40:08.663Z,731.25
2019-05-25T08:41:08.645Z,669.38
2019-05-25T08:42:08.638Z,826.88
2019-05-25T08:43:08.615Z,894.38
2019-05-25T08:44:08.602Z,871.88
2019-05-25T08:45:08.597Z,759.38
2019-05-25T08:46:08.585Z,675.00
2019-05-25T08:47:08.573Z,691.88
2019-05-25T08:48:08.549Z,765.00
2019-05-25T08:49:08.543Z,804.38
2019-05-25T08:50:08.520Z,787.50
2019-05-25T08:51:08.509Z,781.88
2019-05-25T08:52:08.648Z,826.88
2019-05-25T08:53:08.469Z,815.63
2019-05-25T08:54:08.460Z,866.25
2019-05-25T08:55:08.544Z,691.88
2019-05-25T08:56:08.428Z,736.88
2019-05-25T08:57:08.443Z,826.88
2019-05-25T08:58:08.399Z,832.50
2019-05-25T08:59:08.393Z,826.88
2019-05-25T09:00:08.377Z,843.75
2019-05-25T09:01:08.422Z,883.13
2019-05-25T09:02:08.343Z,916.88
2019-05-25T09:03:08.329Z,1006.88
2019-05-25T09:04:08.323Z,973.13
2019-05-25T09:05:08.329Z,961.88
2019-05-25T09:06:08.286Z,871.88
2019-05-25T09:19:07.007Z,1102.50
2019-05-25T09:20:06.990Z,1175.63
2019-05-25T09:21:06.977Z,1186.88
2019-05-25T09:22:06.972Z,1141.88
2019-05-25T09:23:06.969Z,1175.63
2019-05-25T09:24:06.934Z,1423.13
2019-05-25T09:25:06.915Z,1260.00
2019-05-25T09:26:06.906Z,1046.25
2019-05-25T09:27:06.883Z,984.38
2019-05-25T09:36:19.245Z,804.38
2019-05-25T09:37:19.230Z,871.88
2019-05-25T09:38:19.214Z,984.38
2019-05-25T09:39:19.209Z,1051.88
2019-05-25T09:40:19.192Z,1102.50
2019-05-25T09:41:19.205Z,1451.25
2019-05-25T09:42:19.165Z,1468.13
2019-05-25T09:43:19.143Z,950.63
2019-05-25T09:44:19.136Z,877.50
2019-05-25T09:45:19.120Z,725.63
2019-05-25T09:46:19.110Z,646.88
2019-05-25T09:47:21.711Z,720.00
2019-05-25T09:51:15.431Z,4162.50
2019-05-25T09:52:06.782Z,4106.25
2019-05-25T09:53:06.778Z,1288.13
2019-05-25T09:54:06.757Z,1181.25
2019-05-25T09:55:06.755Z,3414.38
2019-05-25T09:56:06.741Z,883.13
2019-05-25T09:57:06.731Z,725.63
2019-05-25T09:58:39.920Z,663.75
2019-05-25T09:59:39.907Z,630.00
2019-05-25T10:00:06.686Z,675.00
2019-05-25T10:01:06.676Z,759.38
2019-05-25T10:02:06.670Z,860.63
2019-05-25T10:03:06.649Z,1057.50
2019-05-25T10:04:06.638Z,4353.75
2019-05-25T10:05:06.641Z,1456.88
2019-05-25T10:06:11.639Z,3999.38
2019-05-25T10:07:06.609Z,4173.75
2019-05-25T10:08:06.600Z,4370.63
2019-05-25T10:09:06.579Z,1395.00
2019-05-25T10:10:06.571Z,2098.13
2019-05-25T10:11:06.560Z,995.63
2019-05-25T10:12:06.560Z,725.63
2019-05-25T10:13:06.537Z,776.25
2019-05-25T10:14:06.532Z,883.13
2019-05-25T10:15:06.556Z,1929.38
2019-05-25T10:16:06.527Z,703.13
2019-05-25T10:17:06.500Z,680.63
2019-05-25T10:18:06.491Z,742.50
2019-05-25T10:19:06.490Z,787.50
2019-05-25T10:20:06.481Z,759.38
2019-05-25T10:21:06.462Z,691.88
2019-05-25T10:22:06.462Z,663.75
2019-05-25T10:23:06.454Z,725.63
2019-05-25T10:24:06.449Z,860.63
2019-05-25T10:25:06.433Z,956.25
2019-05-25T10:26:06.413Z,843.75
2019-05-25T10:27:06.453Z,815.63
2019-05-25T10:28:06.405Z,849.38
2019-05-25T10:29:06.379Z,3999.38
2019-05-25T10:30:06.373Z,1704.38
2019-05-25T10:31:06.360Z,1642.50
2019-05-25T10:32:06.350Z,883.13
2019-05-25T10:33:06.336Z,804.38
2019-05-25T10:34:06.340Z,821.25
2019-05-25T10:35:06.323Z,781.88
2019-05-25T10:36:06.304Z,669.38
2019-05-25T10:37:06.294Z,624.38
2019-05-25T10:38:06.283Z,658.13
2019-05-25T10:39:06.290Z,714.38
2019-05-25T10:40:06.265Z,933.75
2019-05-25T10:41:06.254Z,4393.13
2019-05-25T10:42:06.244Z,1389.38
2019-05-25T10:43:06.230Z,1839.38
2019-05-25T10:44:06.220Z,2778.75
2019-05-25T10:45:06.216Z,1254.38
2019-05-25T10:46:06.226Z,1119.38
2019-05-25T10:47:06.199Z,3802.50
2019-05-25T10:48:06.177Z,1063.13
2019-05-25T10:49:06.195Z,849.38
2019-05-25T10:50:06.160Z,776.25
2019-05-25T10:51:06.145Z,759.38
2019-05-25T10:52:06.143Z,798.75
2019-05-25T10:53:06.135Z,826.88
2019-05-25T10:54:06.157Z,759.38
2019-05-25T10:55:06.114Z,697.50
2019-05-25T10:56:06.089Z,725.63
2019-05-25T10:57:06.076Z,928.13
2019-05-25T10:58:08.688Z,1411.88
2019-05-25T10:59:06.055Z,3363.75
2019-05-25T11:00:06.659Z,1305.00
2019-05-25T11:01:06.047Z,1108.13
2019-05-25T11:02:55.257Z,961.88
2019-05-25T11:03:55.247Z,708.75
2019-05-25T11:04:57.864Z,714.38
2019-05-25T11:06:54.291Z,725.63
2019-05-25T11:09:33.434Z,708.75
2019-05-25T11:10:33.423Z,742.50
2019-05-25T11:11:33.416Z,832.50
2019-05-25T11:13:06.612Z,900.00
2019-05-25T11:14:06.608Z,866.25
2019-05-25T11:15:06.585Z,871.88
2019-05-25T11:16:06.586Z,1811.25
2019-05-25T11:17:06.562Z,1552.50
2019-05-25T11:17:33.342Z,888.75
2019-05-25T11:18:33.341Z,787.50
2019-05-25T11:19:33.316Z,748.13
2019-05-25T11:20:33.319Z,753.75
2019-05-25T11:21:33.313Z,765.00
2019-05-25T11:22:33.280Z,776.25
2019-05-25T11:23:33.293Z,770.63
2019-05-25T11:24:33.298Z,821.25
2019-05-25T11:25:33.243Z,911.25
2019-05-25T11:27:06.450Z,1783.13
2019-05-25T11:27:33.229Z,1260.00
2019-05-25T11:28:33.210Z,945.00
2019-05-25T11:29:33.197Z,888.75
2019-05-25T11:30:33.197Z,793.13
2019-05-25T11:31:33.385Z,765.00
2019-05-25T11:32:33.161Z,759.38
2019-05-25T11:33:36.266Z,770.63
2019-05-25T11:34:33.137Z,753.75
2019-05-25T11:36:06.336Z,731.25
2019-05-25T11:36:33.122Z,725.63
2019-05-25T11:37:33.108Z,753.75
2019-05-25T11:38:33.090Z,725.63
2019-05-25T11:40:27.123Z,731.25
2019-05-25T11:41:27.111Z,770.63
2019-05-25T11:42:27.094Z,810.00
2019-05-25T11:44:00.344Z,888.75
2019-05-25T11:45:00.284Z,781.88
2019-05-25T11:46:00.275Z,759.38
2019-05-25T11:48:12.298Z,894.38
2019-05-25T11:49:22.220Z,911.25
2019-05-25T11:50:12.277Z,961.88
2019-05-25T11:52:57.527Z,736.88
2019-05-25T11:53:57.497Z,720.00
2019-05-25T11:54:57.486Z,697.50
2019-05-25T11:57:42.523Z,568.13
2019-05-25T11:58:47.569Z,646.88
2019-05-25T12:00:24.816Z,686.25
2019-05-25T12:01:15.705Z,731.25
2019-05-25T12:02:15.682Z,759.38
2019-05-25T12:02:42.479Z,804.38
2019-05-25T12:03:42.452Z,810.00
2019-05-25T12:05:15.643Z,810.00
2019-05-25T12:06:15.638Z,765.00
2019-05-25T12:06:42.407Z,703.13
2019-05-25T12:09:27.896Z,686.25
2019-05-25T12:10:27.882Z,703.13
2019-05-25T12:12:01.090Z,691.88
2019-05-25T12:13:01.071Z,686.25
2019-05-25T12:14:01.066Z,770.63
2019-05-25T12:16:13.090Z,753.75
2019-05-25T12:17:13.098Z,742.50
2019-05-25T12:18:46.275Z,759.38
2019-05-25T12:20:07.340Z,658.13
2019-05-25T12:22:52.426Z,731.25
2019-05-25T12:25:37.317Z,776.25
2019-05-25T12:28:22.503Z,686.25
2019-05-25T12:31:07.746Z,601.88
2019-05-25T12:33:52.881Z,641.25
2019-05-25T12:36:37.919Z,579.38
2019-05-25T12:39:26.467Z,382.50
2019-05-25T12:42:07.999Z,382.50
2019-05-25T12:44:53.248Z,382.50
2019-05-25T12:47:38.339Z,416.25
